createdAt,value
2023-02-16T00:04:07.000Z,39.6
2023-02-16T00:09:01.000Z,41.1
2023-02-16T00:13:55.000Z,45.5
2023-02-16T00:18:49.000Z,65.2
2023-02-16T00:23:43.000Z,49.7
2023-02-16T00:28:36.000Z,78.9
2023-02-16T00:33:30.000Z,65.3
2023-02-16T00:38:24.000Z,60.6
2023-02-16T00:43:18.000Z,55.3
2023-02-16T00:48:11.000Z,46.7
2023-02-16T00:53:05.000Z,42.3
2023-02-16T00:57:59.000Z,43.8
2023-02-16T01:02:54.000Z,44.3
2023-02-16T01:07:47.000Z,43.3
2023-02-16T01:12:41.000Z,37
2023-02-16T01:17:34.000Z,40.3
2023-02-16T01:22:27.000Z,34.5
2023-02-16T01:27:22.000Z,30.6
2023-02-16T01:32:15.000Z,36.8
2023-02-16T01:37:09.000Z,34.3
2023-02-16T01:42:03.000Z,31.6
2023-02-16T01:46:57.000Z,31.9
2023-02-16T01:51:51.000Z,31.5
2023-02-16T01:56:46.000Z,28.7
2023-02-16T02:01:40.000Z,29.6
2023-02-16T02:06:34.000Z,32.6
2023-02-16T02:11:28.000Z,33.4
2023-02-16T02:16:22.000Z,38.1
2023-02-16T02:21:17.000Z,35.5
2023-02-16T02:26:11.000Z,33.1
2023-02-16T02:31:05.000Z,33.1
2023-02-16T02:35:59.000Z,34.3
2023-02-16T02:40:51.000Z,35.2
2023-02-16T02:45:45.000Z,31.2
2023-02-16T02:50:39.000Z,33.6
2023-02-16T02:55:33.000Z,32.1
2023-02-16T03:00:30.000Z,42.2
2023-02-16T03:05:21.000Z,37.8
2023-02-16T03:10:16.000Z,37.8
2023-02-16T03:15:09.000Z,41.8
2023-02-16T03:20:03.000Z,43.3
2023-02-16T03:24:56.000Z,49
2023-02-16T03:29:50.000Z,52.9
2023-02-16T03:34:42.000Z,47.1
2023-02-16T03:39:36.000Z,48.3
2023-02-16T03:44:30.000Z,64.5
2023-02-16T03:49:24.000Z,60.7
2023-02-16T03:54:18.000Z,64
2023-02-16T03:59:12.000Z,75.5
2023-02-16T04:04:07.000Z,79.6
2023-02-16T04:09:02.000Z,82.3
2023-02-16T04:13:56.000Z,86.7
2023-02-16T04:18:49.000Z,97.5
2023-02-16T04:23:43.000Z,94.5
2023-02-16T04:28:37.000Z,147.7
2023-02-16T04:33:31.000Z,157.1
2023-02-16T04:38:25.000Z,152.8
2023-02-16T04:43:19.000Z,171.9
2023-02-16T04:48:12.000Z,199.3
2023-02-16T04:53:06.000Z,139
2023-02-16T04:58:00.000Z,157.8
2023-02-16T05:02:54.000Z,154.9
2023-02-16T05:07:48.000Z,257.4
2023-02-16T05:12:42.000Z,197.3
2023-02-16T05:17:36.000Z,214.5
2023-02-16T05:22:30.000Z,283.5
2023-02-16T05:27:24.000Z,271.6
2023-02-16T05:32:18.000Z,193.7
2023-02-16T05:37:12.000Z,173
2023-02-16T05:42:06.000Z,144.4
2023-02-16T05:47:00.000Z,132.5
2023-02-16T05:51:53.000Z,138.5
2023-02-16T05:56:46.000Z,161.5
2023-02-16T06:01:40.000Z,234.9
2023-02-16T06:06:33.000Z,160.5
2023-02-16T06:11:27.000Z,217.2
2023-02-16T06:16:22.000Z,287.2
2023-02-16T06:21:15.000Z,339.2
2023-02-16T06:26:07.000Z,291.7
2023-02-16T06:30:59.000Z,207
2023-02-16T06:35:53.000Z,222.6
2023-02-16T06:40:47.000Z,348.4
2023-02-16T06:45:41.000Z,299.5
2023-02-16T06:50:33.000Z,392
2023-02-16T06:55:28.000Z,455.8
2023-02-16T07:00:20.000Z,456.1
2023-02-16T07:05:14.000Z,420
2023-02-16T07:10:08.000Z,401.4
2023-02-16T07:15:02.000Z,373.8
2023-02-16T07:19:56.000Z,317.7
2023-02-16T07:24:50.000Z,250.7
2023-02-16T07:29:44.000Z,239.8
2023-02-16T07:34:36.000Z,238.6
2023-02-16T07:39:30.000Z,153
2023-02-16T07:44:24.000Z,143.3
2023-02-16T07:49:18.000Z,147.4
2023-02-16T07:54:12.000Z,164.9
2023-02-16T07:59:07.000Z,148
2023-02-16T08:04:01.000Z,117
2023-02-16T08:08:56.000Z,84.6
2023-02-16T08:13:50.000Z,80.9
2023-02-16T08:18:44.000Z,77.6
2023-02-16T08:23:38.000Z,68.9
2023-02-16T08:28:32.000Z,46.4
2023-02-16T08:33:27.000Z,51.9
2023-02-16T08:38:21.000Z,41.1
2023-02-16T08:43:15.000Z,36.2
2023-02-16T08:48:10.000Z,33.8
2023-02-16T08:53:03.000Z,36.5
2023-02-16T08:57:56.000Z,38.4
2023-02-16T09:02:50.000Z,32.3
2023-02-16T09:07:44.000Z,31.2
2023-02-16T09:12:38.000Z,29.9
2023-02-16T09:17:32.000Z,31.7
2023-02-16T09:22:27.000Z,33.5
2023-02-16T09:27:20.000Z,28.7
2023-02-16T09:32:11.000Z,37
2023-02-16T09:37:05.000Z,28
2023-02-16T09:41:59.000Z,30.6
2023-02-16T09:46:53.000Z,24.8
2023-02-16T09:51:47.000Z,23.1
2023-02-16T09:56:41.000Z,24.3
2023-02-16T10:01:35.000Z,22.9
2023-02-16T10:06:29.000Z,24.5
2023-02-16T10:11:23.000Z,24.2
2023-02-16T10:16:18.000Z,22.8
2023-02-16T10:21:12.000Z,22.3
2023-02-16T10:26:06.000Z,19.2
2023-02-16T10:31:00.000Z,22.7
2023-02-16T10:35:53.000Z,21.7
2023-02-16T10:40:46.000Z,24.7
2023-02-16T10:45:40.000Z,20.7
2023-02-16T10:50:35.000Z,20.4
2023-02-16T10:55:30.000Z,20.6
2023-02-16T11:00:26.000Z,20.2
2023-02-16T11:05:22.000Z,19.9
2023-02-16T11:10:17.000Z,18.2
2023-02-16T11:15:10.000Z,17.9
2023-02-16T11:20:05.000Z,18.7
2023-02-16T11:24:59.000Z,18.8
2023-02-16T11:29:53.000Z,18
2023-02-16T11:34:47.000Z,18
2023-02-16T11:39:39.000Z,17.9
2023-02-16T11:44:33.000Z,17.8
2023-02-16T11:49:26.000Z,18.2
2023-02-16T11:54:20.000Z,18.5
2023-02-16T11:59:13.000Z,18.9
2023-02-16T12:04:07.000Z,23.2
2023-02-16T12:08:58.000Z,21.6
2023-02-16T12:13:52.000Z,24
2023-02-16T12:18:46.000Z,19.8
2023-02-16T12:23:39.000Z,21.6
2023-02-16T12:28:33.000Z,21.8
2023-02-16T12:33:27.000Z,19.5
2023-02-16T12:38:21.000Z,20.1
2023-02-16T12:43:14.000Z,20.5
2023-02-16T12:48:08.000Z,19.5
2023-02-16T12:53:02.000Z,20.2
2023-02-16T12:57:56.000Z,20.3
2023-02-16T13:02:49.000Z,24.7
2023-02-16T13:07:42.000Z,18.8
2023-02-16T13:12:36.000Z,21.8
2023-02-16T13:17:30.000Z,22.2
2023-02-16T13:22:24.000Z,22.4
2023-02-16T13:27:18.000Z,22
2023-02-16T13:32:11.000Z,20.2
2023-02-16T13:37:05.000Z,20.3
2023-02-16T13:41:58.000Z,23.7
2023-02-16T13:46:51.000Z,23.2
2023-02-16T13:51:45.000Z,24.2
2023-02-16T13:56:39.000Z,24.3
2023-02-16T14:01:33.000Z,22.8
2023-02-16T14:06:27.000Z,28.2
2023-02-16T14:11:21.000Z,25.9
2023-02-16T14:16:14.000Z,25.5
2023-02-16T14:21:05.000Z,28.6
2023-02-16T14:25:59.000Z,29.5
2023-02-16T14:30:53.000Z,26.9
2023-02-16T14:35:46.000Z,33
2023-02-16T14:40:40.000Z,30.5
2023-02-16T14:45:34.000Z,32.8
2023-02-16T14:50:28.000Z,31
2023-02-16T14:55:22.000Z,30.3
2023-02-16T15:00:16.000Z,29.4
2023-02-16T15:05:10.000Z,31.8
2023-02-16T15:10:04.000Z,32.3
2023-02-16T15:14:58.000Z,26.2
2023-02-16T15:19:52.000Z,28.1
2023-02-16T15:24:45.000Z,29.8
2023-02-16T15:29:39.000Z,23.2
2023-02-16T15:34:31.000Z,25.8
2023-02-16T15:39:28.000Z,26.9
2023-02-16T15:44:19.000Z,26.3
2023-02-16T15:49:13.000Z,26.1
2023-02-16T15:54:07.000Z,27.2
2023-02-16T15:59:01.000Z,26.6
2023-02-16T16:03:53.000Z,25.6
2023-02-16T16:08:47.000Z,24.8
2023-02-16T16:13:42.000Z,28.6
2023-02-16T16:18:36.000Z,24.5
2023-02-16T16:23:30.000Z,23.7
2023-02-16T16:28:24.000Z,23.4
2023-02-16T16:33:18.000Z,25.5
2023-02-16T16:38:10.000Z,23.8
2023-02-16T16:43:04.000Z,27.9
2023-02-16T16:47:58.000Z,23
2023-02-16T16:52:52.000Z,26.8
2023-02-16T16:57:49.000Z,24.4
2023-02-16T17:02:40.000Z,28.8
2023-02-16T17:07:34.000Z,28.3
2023-02-16T17:12:28.000Z,27.4
2023-02-16T17:17:22.000Z,26.5
2023-02-16T17:22:15.000Z,26.6
2023-02-16T17:27:08.000Z,25.6
2023-02-16T17:32:02.000Z,25.9
2023-02-16T17:36:55.000Z,24.2
2023-02-16T17:41:49.000Z,26
2023-02-16T17:46:43.000Z,27.9
2023-02-16T17:51:37.000Z,28.7
2023-02-16T17:56:31.000Z,24.7
2023-02-16T18:01:26.000Z,23.1
2023-02-16T18:06:20.000Z,25.5
2023-02-16T18:11:15.000Z,23.1
2023-02-16T18:16:09.000Z,24.3
2023-02-16T18:21:03.000Z,23.7
2023-02-16T18:25:57.000Z,21
2023-02-16T18:30:52.000Z,25.4
2023-02-16T18:35:46.000Z,20.6
2023-02-16T18:40:40.000Z,20.1
2023-02-16T18:45:34.000Z,26.9
2023-02-16T18:50:28.000Z,23.2
2023-02-16T18:55:23.000Z,23.8
2023-02-16T19:00:13.000Z,22.8
2023-02-16T19:05:07.000Z,22.7
2023-02-16T19:10:01.000Z,27.3
2023-02-16T19:14:55.000Z,24.3
2023-02-16T19:19:49.000Z,24.1
2023-02-16T19:24:43.000Z,23.8
2023-02-16T19:29:38.000Z,33.2
2023-02-16T19:34:31.000Z,25.3
2023-02-16T19:39:26.000Z,24.9
2023-02-16T19:44:20.000Z,24.6
2023-02-16T19:49:13.000Z,27.8
2023-02-16T19:54:08.000Z,23.4
2023-02-16T19:59:02.000Z,20.3
2023-02-16T20:03:55.000Z,22.9
2023-02-16T20:08:49.000Z,19.8
2023-02-16T20:13:43.000Z,21.6
2023-02-16T20:18:37.000Z,19.9
2023-02-16T20:23:32.000Z,25.2
2023-02-16T20:28:26.000Z,19.8
2023-02-16T20:33:20.000Z,19.7
2023-02-16T20:38:15.000Z,22.2
2023-02-16T20:43:09.000Z,19.7
2023-02-16T20:48:00.000Z,19
2023-02-16T20:52:54.000Z,20.6
2023-02-16T20:57:48.000Z,19.9
2023-02-16T21:02:41.000Z,22.1
2023-02-16T21:07:34.000Z,21.2
2023-02-16T21:12:28.000Z,21.4
2023-02-16T21:17:23.000Z,22.1
2023-02-16T21:22:17.000Z,21.3
2023-02-16T21:27:12.000Z,24
2023-02-16T21:32:06.000Z,20.5
2023-02-16T21:37:00.000Z,21
2023-02-16T21:41:55.000Z,24.9
2023-02-16T21:46:48.000Z,23.4
2023-02-16T21:51:42.000Z,25.9
2023-02-16T21:56:35.000Z,32.7
2023-02-16T22:01:29.000Z,29
2023-02-16T22:06:24.000Z,36.1
2023-02-16T22:11:18.000Z,37.4
2023-02-16T22:16:12.000Z,35.7
2023-02-16T22:21:06.000Z,43.5
2023-02-16T22:26:00.000Z,41.3
2023-02-16T22:30:55.000Z,43.1
2023-02-16T22:35:49.000Z,39.7
2023-02-16T22:40:41.000Z,43.9
2023-02-16T22:45:34.000Z,42.1
2023-02-16T22:50:28.000Z,38.9
2023-02-16T22:55:22.000Z,45
2023-02-16T23:00:17.000Z,40.9
2023-02-16T23:05:11.000Z,43.5
2023-02-16T23:10:05.000Z,44.7
2023-02-16T23:15:00.000Z,39.2
2023-02-16T23:19:53.000Z,38.9
2023-02-16T23:24:47.000Z,40.7
2023-02-16T23:29:40.000Z,40.9
2023-02-16T23:34:34.000Z,38.6
2023-02-16T23:39:28.000Z,38
2023-02-16T23:44:23.000Z,33.6
2023-02-16T23:49:17.000Z,34.5
2023-02-16T23:54:11.000Z,37.8
2023-02-16T23:59:05.000Z,35.6
